This is the latest recevied weather packets stored in our database for station/object W4SNA-2. If no packets are shown the sender has not sent any weather packets the latest 1 day(s).
| Time | Temp. | Humidity | Pressure | Rain* | Wind** | Luminosity | Snow |
|---|---|---|---|---|---|---|---|
| 1778001434 | 21.11° C | 48% | 1017.3 hPa | 0 mm | 1.79 m/s, 198° | - | - |
| 1778001107 | 21.67° C | 49% | 1017.3 hPa | 0 mm | 1.79 m/s, 188° | - | - |
| 1778000785 | 21.11° C | 49% | 1017.4 hPa | 0 mm | 2.24 m/s, 192° | - | - |
| 1778000470 | 21.11° C | 49% | 1017.5 hPa | 0 mm | 1.79 m/s, 187° | - | - |
| 1778000170 | 21.67° C | 47% | 1017.5 hPa | 0 mm | 3.13 m/s, 194° | - | - |
| 1777999870 | 21.11° C | 48% | 1017.5 hPa | 0 mm | 1.34 m/s, 193° | - | - |
| 1777999570 | 21.11° C | 49% | 1017.6 hPa | 0 mm | 2.24 m/s, 188° | - | - |
| 1777999270 | 21.11° C | 50% | 1017.7 hPa | 0 mm | 0.89 m/s, 178° | - | - |
| 1777998970 | 21.11° C | 51% | 1017.8 hPa | 0 mm | 2.68 m/s, 194° | - | - |
| 1777998670 | 21.11° C | 52% | 1017.7 hPa | 0 mm | 1.79 m/s, 186° | - | - |
| 1777998370 | 21.11° C | 52% | 1017.9 hPa | 0 mm | 0.45 m/s, 185° | - | - |
| 1777998070 | 21.11° C | 51% | 1017.9 hPa | 0 mm | 2.24 m/s, 185° | - | - |
| 1777997770 | 21.11° C | 54% | 1017.9 hPa | 0 mm | 0.89 m/s, 174° | - | - |
| 1777997470 | 21.11° C | 53% | 1018.1 hPa | 0 mm | 1.34 m/s, 194° | - | - |
| 1777997170 | 21.11° C | 53% | 1018.1 hPa | 0 mm | 0.45 m/s, 180° | - | - |
| 1777996870 | 20.56° C | 56% | 1018.1 hPa | 0 mm | 0.89 m/s, 175° | - | - |
| 1777996570 | 20.56° C | 55% | 1018.2 hPa | 0 mm | 1.34 m/s, 180° | - | - |
| 1777996270 | 21.11° C | 58% | 1018.1 hPa | 0 mm | 0.89 m/s, 192° | - | - |
| 1777995970 | 20.56° C | 58% | 1018.2 hPa | 0 mm | 0 m/s | - | - |
| 1777995670 | 20° C | 59% | 1018.2 hPa | 0 mm | 0.45 m/s, 179° | - | - |
| 1777995370 | 20° C | 57% | 1018.2 hPa | 0 mm | 1.34 m/s, 185° | - | - |
| 1777995070 | 20° C | 57% | 1018.3 hPa | 0 mm | 0.45 m/s, 185° | - | - |
| 1777994773 | 20° C | 60% | 1018.3 hPa | 0 mm | 0.45 m/s, 183° | - | - |
| 1777994470 | 19.44° C | 61% | 1018.5 hPa | 0 mm | 0.45 m/s, 181° | - | - |
| 1777994170 | 18.89° C | 63% | 1018.3 hPa | 0 mm | 0.89 m/s, 180° | - | - |
* Rain latest hour (hover to see other rain measurements)
** Current wind speed in m/s (hover to see current wind gust speed)